Stampede Pass, WA

11:16 PM PST on February 20, 2018 (GMT -0800)
Stampede Pass | | Change Station

Elev 3967 ft 47.28 °N, 121.33 °W | Updated 20 minutes ago

Partly Cloudy
Partly Cloudy
11 °F
Feels Like 3 °F
N
5
Wind Variable Wind from Variable

Today
High -- | Low -- °F
--% Chance of Precip.
Yesterday
High -- | Low -- °F
Precip. -- in
Pressure 30.25 in
Visibility 10.0 miles
Clouds Mostly Cloudy 1200 ft
Windchill 3 °F
Dew Point 8 °F
Humidity 88%
Rainfall 0.01 in
Snow Depth Not available.
7:02 AM 5:37 PM
Waxing Crescent, 28% visible
METAR KSMP 210656Z AUTO VRB04KT 10SM BKN012 M12/M13 A3007 RMK AO2 SLP241 I1000 T11171133 410781117 $
Pressure 30.25 in
Visibility 10.0 miles
Clouds Mostly Cloudy 1200 ft
Windchill 3 °F
Dew Point 8 °F
Humidity 88%
Rainfall 0.01 in
Snow Depth Not available.
7:02 AM 5:37 PM
Waxing Crescent, 28% visible
METAR KSMP 210656Z AUTO VRB04KT 10SM BKN012 M12/M13 A3007 RMK AO2 SLP241 I1000 T11171133 410781117 $

Get Severe Weather Alerts

Thanks for signing up!

Be on the lookout for a verification email in your inbox.

You'll start receiving the daily forecast at 6 AM.

×

10-Day Weather Forecast

Almanac

Astronomy

Feb. 20, 2018 Rise Set
Actual Time
Civil Twilight
Nautical Twilight
Astronomical Twilight
Moon
Length of Visible Light
Length of Day
Tomorrow will be .
, % of the Moon is Illuminated

Today's Extremes

State Highs State Lows

Community

WunderPhotos

Category 6

Welcome to Category 6. This is the collective home for Weather Underground's featured writeups by Dr. Jeff Masters (right), Bob Henson (left), Chris Burt, and other regular contributors.

Nearby

Air Quality

  Air Quality AQ Index Pollutant
Not available.

Snow Depth

Station Depth Elevation

Earthquake Activity

City Distance Mag. Time & Date
Minimum magnitude displayed is 2.5.

Coastal Water Temperatures

Place Temperature

Stations

Nearby Weather Stations

Station Location Temp. Windchill Dew Point Humidity Wind Precip. Elev Updated Type
                   

Watches & Warnings

There are currently no watches in effect.